Time;durP1;ratioP1;P1;durP2;ratioP2;P2;SDS_P1;SDS_P2;PMS_P1;PMS_P2;Temp;Humidity;BMP_temperature;BMP_pressure;BME280_temperature;BME280_humidity;BME280_pressure;Samples;Min_cycle;Max_cycle;Signal;HPM_P1;HPM_P2
2023/04/03 00:00:28;;;;;;;;;;;;;;;3.11;88.75;92800.72;5069697;28;19941;-38
2023/04/03 00:02:54;;;;;;;;;;;;;;;3.34;87.80;92788.22;5070384;28;19984;-37
2023/04/03 00:05:19;;;;;;;;;;;;;;;3.26;87.71;92787.38;5078359;28;19938;-37
2023/04/03 00:07:44;;;;;;;;;;;;;;;3.27;88.79;92788.84;5070831;28;19932;-37
2023/04/03 00:10:10;;;;;;;;;;;;;;;3.00;89.76;92796.16;5069031;28;20341;-37
2023/04/03 00:12:35;;;;;;;;;;;;;;;3.16;89.49;92791.72;5070838;28;19947;-37
2023/04/03 00:15:00;;;;;;;;;;;;;;;3.21;88.81;92793.63;5070477;28;19935;-37
2023/04/03 00:17:26;;;;;;;;;;;;;;;3.13;87.57;92790.03;5076256;28;19934;-37
2023/04/03 00:19:51;;;;;;;;;;;;;;;3.16;87.00;92781.56;5082869;28;19932;-37
2023/04/03 00:22:16;;;;;;;;;;;;;;;3.30;86.76;92771.44;5073135;28;19960;-38
2023/04/03 00:24:41;;;;;;;;;;;;;;;2.90;87.45;92776.69;5070313;28;20413;-38
2023/04/03 00:27:07;;;;;;;;;;;;;;;2.70;88.28;92771.75;5069490;28;20025;-38
2023/04/03 00:29:32;;;;;;;;;;;;;;;2.86;88.29;92781.69;5069296;28;20463;-37
2023/04/03 00:31:57;;;;;;;;;;;;;;;2.81;88.23;92782.53;5069478;28;19939;-38
2023/04/03 00:34:22;;;;;;;;;;;;;;;2.91;88.31;92777.44;5070257;28;20403;-38
2023/04/03 00:36:48;;;;;;;;;;;;;;;2.89;88.93;92780.69;5069662;28;19934;-38
2023/04/03 00:39:13;;;;;;;;;;;;;;;2.76;89.09;92772.41;5070100;28;19936;-38
2023/04/03 00:41:38;;;;;;;;;;;;;;;2.92;87.64;92778.91;5068046;28;19964;-37
2023/04/03 00:44:23;;;;;;;;;;;;;;;2.85;88.22;92782.97;5070067;28;19929;-37
2023/04/03 00:46:48;;;;;;;;;;;;;;;2.86;87.65;92787.16;5072649;28;19937;-37
2023/04/03 00:49:14;;;;;;;;;;;;;;;2.82;86.54;92791.41;5069629;28;20029;-37
2023/04/03 00:51:39;;;;;;;;;;;;;;;2.78;86.45;92793.69;5069727;28;19935;-37
2023/04/03 00:54:05;;;;;;;;;;;;;;;2.99;85.96;92794.66;5068580;28;19930;-37
2023/04/03 00:56:30;;;;;;;;;;;;;;;2.97;86.29;92795.19;5069236;28;19933;-37
2023/04/03 00:58:57;;;;;;;;;;;;;;;2.74;88.04;92791.28;5069459;28;20029;-37
2023/04/03 01:01:24;;;;;;;;;;;;;;;2.76;88.32;92799.69;5069031;28;19956;-37
2023/04/03 01:03:50;;;;;;;;;;;;;;;2.73;87.88;92800.69;5068735;28;19937;-37
2023/04/03 01:06:16;;;;;;;;;;;;;;;2.47;89.36;92791.59;5069961;28;19931;-37
2023/04/03 01:08:41;;;;;;;;;;;;;;;2.47;89.46;92800.50;5106143;27;19936;-37
2023/04/03 01:11:07;;;;;;;;;;;;;;;2.50;89.85;92798.75;5069052;28;19941;-37
2023/04/03 01:13:32;;;;;;;;;;;;;;;2.35;90.84;92793.69;5069267;28;19934;-37
2023/04/03 01:16:00;;;;;;;;;;;;;;;2.38;91.01;92800.13;5069022;28;19967;-37
2023/04/03 01:18:25;;;;;;;;;;;;;;;2.38;89.37;92791.94;5070805;28;19941;-37
2023/04/03 01:21:09;;;;;;;;;;;;;;;2.50;89.52;92804.94;5069440;28;20474;-37
2023/04/03 01:23:35;;;;;;;;;;;;;;;2.63;88.16;92804.28;5063124;28;19928;-37
2023/04/03 01:26:00;;;;;;;;;;;;;;;2.75;86.66;92806.38;5068385;28;19993;-37
2023/04/03 01:28:26;;;;;;;;;;;;;;;2.75;86.75;92808.38;5069201;28;19987;-37
2023/04/03 01:31:07;;;;;;;;;;;;;;;2.41;88.68;92816.16;5068629;28;20004;-37
2023/04/03 01:33:32;;;;;;;;;;;;;;;2.08;90.06;92811.78;5069913;28;19938;-37
2023/04/03 01:35:58;;;;;;;;;;;;;;;2.12;89.81;92814.25;5069089;28;20370;-37
2023/04/03 01:38:23;;;;;;;;;;;;;;;2.41;88.64;92818.91;5068880;28;19999;-37
2023/04/03 01:40:48;;;;;;;;;;;;;;;2.09;88.89;92815.25;5065654;28;19940;-37
2023/04/03 01:43:14;;;;;;;;;;;;;;;1.84;89.95;92816.47;5068873;28;19936;-37
2023/04/03 01:45:39;;;;;;;;;;;;;;;2.09;88.96;92812.53;5068577;28;19937;-37
2023/04/03 01:48:04;;;;;;;;;;;;;;;2.02;89.15;92810.38;5068643;28;19938;-37
2023/04/03 01:50:30;;;;;;;;;;;;;;;1.74;89.49;92801.69;5075104;28;19931;-37
2023/04/03 01:52:55;;;;;;;;;;;;;;;1.93;90.08;92799.81;5068627;28;19995;-37
2023/04/03 01:55:20;;;;;;;;;;;;;;;2.04;90.18;92805.16;5070395;28;20334;-37
2023/04/03 01:57:46;;;;;;;;;;;;;;;2.04;89.56;92803.16;5067747;28;19943;-37
2023/04/03 02:00:11;;;;;;;;;;;;;;;2.11;88.68;92807.31;5068956;28;19934;-38
2023/04/03 02:02:37;;;;;;;;;;;;;;;1.86;89.57;92803.09;5069114;28;20083;-37
2023/04/03 02:05:02;;;;;;;;;;;;;;;1.78;90.17;92815.78;5067864;28;19946;-37
2023/04/03 02:07:27;;;;;;;;;;;;;;;1.54;91.00;92821.88;5068852;28;19953;-37
2023/04/03 02:09:53;;;;;;;;;;;;;;;1.55;91.67;92817.94;5068398;28;19939;-37
2023/04/03 02:12:18;;;;;;;;;;;;;;;1.66;91.11;92817.84;5068219;28;19946;-38
2023/04/03 02:14:43;;;;;;;;;;;;;;;1.89;90.14;92802.06;5074329;28;20104;-38
2023/04/03 02:17:08;;;;;;;;;;;;;;;1.86;88.61;92822.16;5072745;28;19929;-37
2023/04/03 02:19:35;;;;;;;;;;;;;;;1.94;89.46;92826.53;5078324;28;20322;-37
2023/04/03 02:22:00;;;;;;;;;;;;;;;1.99;87.39;92825.72;5068504;28;19967;-38
2023/04/03 02:24:25;;;;;;;;;;;;;;;1.92;86.52;92820.13;5069022;28;20426;-37
2023/04/03 02:26:51;;;;;;;;;;;;;;;1.54;88.80;92817.19;5067974;28;19995;-38
2023/04/03 02:29:16;;;;;;;;;;;;;;;1.60;88.56;92819.16;5068099;28;19930;-38
2023/04/03 02:31:41;;;;;;;;;;;;;;;1.64;88.23;92814.91;5067259;28;19955;-38
2023/04/03 02:34:06;;;;;;;;;;;;;;;1.59;88.50;92812.22;5068692;28;20018;-38
2023/04/03 02:36:32;;;;;;;;;;;;;;;1.57;89.05;92809.25;5078052;28;19931;-38
2023/04/03 02:38:57;;;;;;;;;;;;;;;1.61;88.24;92799.59;5067412;28;20036;-38
2023/04/03 02:41:23;;;;;;;;;;;;;;;1.89;86.77;92796.63;5067094;28;20050;-37
2023/04/03 02:43:48;;;;;;;;;;;;;;;1.80;86.15;92800.41;5068335;28;19936;-37
2023/04/03 02:46:15;;;;;;;;;;;;;;;1.71;87.45;92797.28;5067831;28;20023;-37
2023/04/03 02:48:40;;;;;;;;;;;;;;;1.90;87.05;92787.97;5067847;28;19957;-37
2023/04/03 02:51:05;;;;;;;;;;;;;;;1.78;87.26;92792.03;5069601;28;19931;-37
2023/04/03 02:53:31;;;;;;;;;;;;;;;1.92;87.01;92790.19;5068118;28;20005;-37
2023/04/03 02:55:56;;;;;;;;;;;;;;;1.45;88.88;92786.88;5068293;28;19939;-37
2023/04/03 02:58:21;;;;;;;;;;;;;;;1.66;89.85;92784.47;5068198;28;19925;-37
2023/04/03 03:00:46;;;;;;;;;;;;;;;1.30;90.67;92781.03;5067406;28;20396;-37
2023/04/03 03:03:13;;;;;;;;;;;;;;;1.12;92.16;92784.38;5067628;28;19929;-37
2023/04/03 03:05:39;;;;;;;;;;;;;;;1.12;92.59;92781.66;5067470;28;20000;-37
2023/04/03 03:08:04;;;;;;;;;;;;;;;0.98;92.54;92771.84;5067119;28;19928;-37
2023/04/03 03:10:30;;;;;;;;;;;;;;;1.20;92.53;92772.44;5071162;28;19934;-38
2023/04/03 03:12:55;;;;;;;;;;;;;;;1.38;91.64;92774.56;5071594;28;19931;-38
2023/04/03 03:15:21;;;;;;;;;;;;;;;1.16;91.48;92766.53;5069613;28;19930;-38
2023/04/03 03:17:46;;;;;;;;;;;;;;;1.34;91.72;92768.63;5071016;28;19933;-38
2023/04/03 03:20:13;;;;;;;;;;;;;;;1.35;89.70;92775.56;5065863;28;19934;-38
2023/04/03 03:22:39;;;;;;;;;;;;;;;1.44;89.33;92771.78;5071219;28;19951;-38
2023/04/03 03:25:04;;;;;;;;;;;;;;;1.38;88.88;92765.66;5070992;28;19938;-38
2023/04/03 03:27:30;;;;;;;;;;;;;;;1.34;88.42;92759.75;5072436;28;19935;-38
2023/04/03 03:29:55;;;;;;;;;;;;;;;1.50;88.97;92767.78;5073661;28;20026;-38
2023/04/03 03:32:20;;;;;;;;;;;;;;;1.40;88.58;92763.91;5069853;28;20030;-38
2023/04/03 03:34:46;;;;;;;;;;;;;;;1.30;88.42;92760.00;5071806;28;20033;-38
2023/04/03 03:37:11;;;;;;;;;;;;;;;1.22;90.64;92759.09;5070992;28;19987;-38
2023/04/03 03:39:36;;;;;;;;;;;;;;;1.18;90.92;92755.16;5070692;28;19987;-38
2023/04/03 03:42:02;;;;;;;;;;;;;;;1.31;90.40;92760.75;5070825;28;19946;-38
2023/04/03 03:44:29;;;;;;;;;;;;;;;1.26;89.57;92758.81;5070367;28;19948;-37
2023/04/03 03:46:54;;;;;;;;;;;;;;;1.00;90.99;92758.47;5071334;28;19933;-37
2023/04/03 03:49:19;;;;;;;;;;;;;;;1.20;90.63;92760.81;5070480;28;20276;-37
2023/04/03 03:51:45;;;;;;;;;;;;;;;1.15;89.50;92758.91;5070381;28;19931;-37
2023/04/03 03:54:10;;;;;;;;;;;;;;;0.82;91.79;92759.09;5071466;28;19967;-37
2023/04/03 03:56:35;;;;;;;;;;;;;;;0.74;93.25;92767.03;5105871;27;20441;-37
2023/04/03 03:59:01;;;;;;;;;;;;;;;0.71;94.35;92770.78;5070815;28;19946;-38
2023/04/03 04:01:26;;;;;;;;;;;;;;;0.73;94.73;92766.31;5070597;28;19961;-38
2023/04/03 04:03:53;;;;;;;;;;;;;;;0.78;94.84;92770.22;5070387;28;19967;-38
2023/04/03 04:06:19;;;;;;;;;;;;;;;1.01;94.01;92781.72;5070463;28;19934;-37
2023/04/03 04:08:44;;;;;;;;;;;;;;;1.15;92.79;92775.22;5070178;28;19939;-37
2023/04/03 04:11:09;;;;;;;;;;;;;;;1.21;92.82;92776.63;5070134;28;19932;-37
2023/04/03 04:13:34;;;;;;;;;;;;;;;1.14;92.71;92773.72;5070562;28;20032;-37
2023/04/03 04:16:00;;;;;;;;;;;;;;;1.22;92.40;92769.97;5070531;28;19936;-38
2023/04/03 04:18:25;;;;;;;;;;;;;;;1.37;91.50;92773.06;5070425;28;20446;-37
2023/04/03 04:20:50;;;;;;;;;;;;;;;1.40;90.90;92774.78;5067721;28;20434;-38
2023/04/03 04:23:16;;;;;;;;;;;;;;;1.44;90.46;92775.25;5070546;28;19936;-37
2023/04/03 04:25:43;;;;;;;;;;;;;;;1.51;89.53;92771.22;5069891;28;20068;-37
2023/04/03 04:28:09;;;;;;;;;;;;;;;1.50;88.59;92781.38;5067647;28;19989;-37
2023/04/03 04:30:34;;;;;;;;;;;;;;;1.40;89.44;92776.75;5067458;28;19932;-37
2023/04/03 04:32:59;;;;;;;;;;;;;;;1.43;89.41;92778.44;5067681;28;19932;-38
2023/04/03 04:35:25;;;;;;;;;;;;;;;1.48;89.01;92774.97;5070043;28;19946;-37
2023/04/03 04:37:50;;;;;;;;;;;;;;;1.56;89.00;92777.88;5068470;28;20034;-38
2023/04/03 04:40:15;;;;;;;;;;;;;;;1.70;89.34;92782.94;5068684;28;19932;-37
2023/04/03 04:42:41;;;;;;;;;;;;;;;1.77;89.68;92784.38;5069618;28;19949;-37
2023/04/03 04:45:07;;;;;;;;;;;;;;;1.83;88.36;92785.06;5102254;27;19950;-37
2023/04/03 04:47:32;;;;;;;;;;;;;;;1.72;88.10;92787.88;5069070;28;19934;-37
2023/04/03 04:49:57;;;;;;;;;;;;;;;1.60;88.70;92789.22;5069218;28;20316;-37
2023/04/03 04:52:23;;;;;;;;;;;;;;;1.61;90.12;92793.41;5069414;28;19993;-37
2023/04/03 04:54:48;;;;;;;;;;;;;;;1.77;89.75;92803.41;5068690;28;19937;-37
2023/04/03 04:57:13;;;;;;;;;;;;;;;1.80;90.16;92803.13;5069530;28;19951;-37
2023/04/03 04:59:38;;;;;;;;;;;;;;;1.91;89.47;92805.00;5102396;28;19939;-37
2023/04/03 05:02:04;;;;;;;;;;;;;;;1.93;88.99;92802.53;5068850;28;19958;-37
2023/04/03 05:04:29;;;;;;;;;;;;;;;1.98;88.68;92799.75;5069662;28;19936;-37
2023/04/03 05:06:54;;;;;;;;;;;;;;;2.10;89.32;92808.56;5068765;28;19942;-37
2023/04/03 05:09:20;;;;;;;;;;;;;;;2.30;89.53;92811.56;5068025;28;20401;-37
2023/04/03 05:11:45;;;;;;;;;;;;;;;2.34;89.43;92810.56;5072980;28;19937;-38
2023/04/03 05:14:11;;;;;;;;;;;;;;;2.61;87.93;92810.25;5071030;28;19926;-37
2023/04/03 05:16:36;;;;;;;;;;;;;;;2.69;86.34;92816.59;5074667;28;20016;-37
2023/04/03 05:19:01;;;;;;;;;;;;;;;2.79;85.83;92817.00;5065575;28;19930;-37
2023/04/03 05:21:31;;;;;;;;;;;;;;;3.04;84.94;92824.59;5068797;28;20006;-37
2023/04/03 05:23:56;;;;;;;;;;;;;;;3.12;83.40;92829.47;5069365;28;19930;-37
2023/04/03 05:26:22;;;;;;;;;;;;;;;3.17;82.83;92825.91;5069503;28;20328;-37
2023/04/03 05:28:47;;;;;;;;;;;;;;;3.24;82.80;92817.16;5068190;28;19940;-37
2023/04/03 05:31:12;;;;;;;;;;;;;;;3.27;82.37;92821.59;5068017;28;19938;-37
2023/04/03 05:33:38;;;;;;;;;;;;;;;3.20;82.96;92814.00;5066525;28;19934;-37
2023/04/03 05:36:03;;;;;;;;;;;;;;;3.58;82.90;92815.41;5068372;28;20098;-37
2023/04/03 05:38:29;;;;;;;;;;;;;;;3.49;84.02;92829.44;5068340;28;19963;-37
2023/04/03 05:40:54;;;;;;;;;;;;;;;3.54;85.23;92825.91;5068346;28;19941;-38
2023/04/03 05:43:20;;;;;;;;;;;;;;;4.14;83.66;92826.19;5067744;28;19940;-37
2023/04/03 05:45:46;;;;;;;;;;;;;;;4.31;82.06;92824.66;5067861;28;20442;-37
2023/04/03 05:48:12;;;;;;;;;;;;;;;4.39;79.53;92827.53;5067144;28;19965;-37
2023/04/03 05:50:41;;;;;;;;;;;;;;;4.42;79.25;92819.00;5068356;28;19978;-37
2023/04/03 05:53:06;;;;;;;;;;;;;;;4.67;79.68;92821.53;5068273;28;20024;-37
2023/04/03 05:55:32;;;;;;;;;;;;;;;4.96;79.70;92815.03;5069712;28;20028;-38
2023/04/03 05:57:57;;;;;;;;;;;;;;;4.75;78.64;92817.66;5068786;28;20431;-38
2023/04/03 06:00:22;;;;;;;;;;;;;;;5.03;79.06;92806.16;5068998;28;19929;-38
2023/04/03 06:02:47;;;;;;;;;;;;;;;5.23;77.63;92811.72;5068511;28;20478;-38
2023/04/03 06:05:14;;;;;;;;;;;;;;;5.53;77.90;92816.03;5068165;28;19926;-37
2023/04/03 06:07:39;;;;;;;;;;;;;;;5.79;77.28;92815.94;5068071;28;19936;-38
2023/04/03 06:10:05;;;;;;;;;;;;;;;5.79;75.80;92813.94;5067907;28;19946;-38
2023/04/03 06:12:30;;;;;;;;;;;;;;;5.85;76.60;92803.63;5067591;28;19997;-37
2023/04/03 06:14:55;;;;;;;;;;;;;;;6.21;74.42;92801.03;5068203;28;19931;-38
2023/04/03 06:17:21;;;;;;;;;;;;;;;6.16;75.27;92803.88;5069279;28;20000;-38
2023/04/03 06:19:46;;;;;;;;;;;;;;;6.15;75.04;92789.44;5068272;28;20013;-37
2023/04/03 06:22:11;;;;;;;;;;;;;;;6.60;73.70;92798.03;5068403;28;19952;-37
2023/04/03 06:24:37;;;;;;;;;;;;;;;7.23;72.97;92804.78;5070099;28;19938;-37
2023/04/03 06:27:03;;;;;;;;;;;;;;;7.78;71.24;92798.91;5068385;28;20403;-37
2023/04/03 06:29:28;;;;;;;;;;;;;;;8.16;68.51;92799.72;5069096;28;19936;-38
2023/04/03 06:31:53;;;;;;;;;;;;;;;8.44;67.14;92798.81;5074298;28;19946;-38
2023/04/03 06:34:20;;;;;;;;;;;;;;;8.65;67.09;92796.59;5072710;28;19936;-38
2023/04/03 06:36:45;;;;;;;;;;;;;;;8.92;66.04;92798.38;5067247;28;19940;-37
2023/04/03 06:39:14;;;;;;;;;;;;;;;9.07;65.92;92794.88;5066778;28;19994;-38
2023/04/03 06:41:40;;;;;;;;;;;;;;;9.28;64.62;92781.59;5067426;28;19980;-38
2023/04/03 06:44:06;;;;;;;;;;;;;;;9.12;65.22;92791.94;5070128;28;20406;-37
2023/04/03 06:46:31;;;;;;;;;;;;;;;9.47;65.72;92792.16;5072374;28;19939;-38
2023/04/03 06:48:56;;;;;;;;;;;;;;;9.56;64.66;92799.84;5075294;28;19937;-38
2023/04/03 06:51:26;;;;;;;;;;;;;;;9.66;64.79;92798.69;5077712;28;19939;-38
2023/04/03 06:53:52;;;;;;;;;;;;;;;9.72;63.54;92801.25;5075255;28;19940;-38
2023/04/03 06:56:17;;;;;;;;;;;;;;;9.56;65.81;92806.09;5085291;28;19988;-38
2023/04/03 06:58:43;;;;;;;;;;;;;;;9.19;65.40;92806.97;5071837;28;19941;-38
2023/04/03 07:01:09;;;;;;;;;;;;;;;9.36;65.75;92804.34;5070939;28;19983;-38
2023/04/03 07:03:35;;;;;;;;;;;;;;;9.43;66.48;92805.59;5071103;28;19976;-37
2023/04/03 07:06:00;;;;;;;;;;;;;;;9.71;65.14;92799.78;5071921;28;20644;-38
2023/04/03 07:08:26;;;;;;;;;;;;;;;9.72;67.07;92801.25;5070778;28;19938;-37
2023/04/03 07:10:51;;;;;;;;;;;;;;;10.16;66.19;92791.28;5071159;28;19934;-38
2023/04/03 07:13:16;;;;;;;;;;;;;;;10.70;65.97;92792.34;5070810;28;19942;-38
2023/04/03 07:15:42;;;;;;;;;;;;;;;11.03;64.27;92792.94;5071107;28;19994;-37
2023/04/03 07:18:07;;;;;;;;;;;;;;;11.31;62.72;92789.72;5070829;28;20418;-38
2023/04/03 07:20:33;;;;;;;;;;;;;;;11.32;62.86;92785.66;5066834;28;19937;-38
2023/04/03 07:22:58;;;;;;;;;;;;;;;11.54;62.86;92795.00;5069897;28;20080;-38
2023/04/03 07:25:23;;;;;;;;;;;;;;;11.77;61.48;92793.44;5068854;28;19948;-38
2023/04/03 07:27:49;;;;;;;;;;;;;;;11.80;61.61;92794.34;5071843;28;20053;-38
2023/04/03 07:30:14;;;;;;;;;;;;;;;11.82;61.42;92797.25;5073135;28;19958;-38
2023/04/03 07:32:40;;;;;;;;;;;;;;;12.08;61.68;92791.00;5066038;28;19939;-38
2023/04/03 07:35:05;;;;;;;;;;;;;;;12.49;60.04;92792.06;5071847;28;20688;-38
2023/04/03 07:37:32;;;;;;;;;;;;;;;12.72;58.70;92793.16;5071291;28;19936;-38
2023/04/03 07:39:58;;;;;;;;;;;;;;;11.79;58.42;92788.06;5070251;28;19937;-38
2023/04/03 07:42:24;;;;;;;;;;;;;;;12.35;57.99;92788.22;5068549;28;19948;-38
2023/04/03 07:44:49;;;;;;;;;;;;;;;12.76;58.58;92781.66;5068718;28;20306;-38
2023/04/03 07:47:17;;;;;;;;;;;;;;;13.34;57.84;92768.66;5067730;28;20428;-38
2023/04/03 07:49:43;;;;;;;;;;;;;;;13.35;56.04;92762.53;5067761;28;19933;-38
2023/04/03 07:52:08;;;;;;;;;;;;;;;13.43;56.43;92757.56;5067177;28;19966;-38
2023/04/03 07:54:34;;;;;;;;;;;;;;;13.59;56.27;92764.28;5067888;28;19945;-38
2023/04/03 07:57:00;;;;;;;;;;;;;;;13.86;55.21;92766.16;5070594;28;20033;-38
2023/04/03 07:59:25;;;;;;;;;;;;;;;14.16;55.00;92765.50;5069146;28;19943;-38
2023/04/03 08:01:51;;;;;;;;;;;;;;;13.97;54.04;92766.25;5068042;28;19956;-38
2023/04/03 08:04:16;;;;;;;;;;;;;;;13.67;52.26;92761.34;5067660;28;19937;-38
2023/04/03 08:06:41;;;;;;;;;;;;;;;13.55;54.80;92760.50;5067517;28;20473;-38
2023/04/03 08:09:07;;;;;;;;;;;;;;;13.53;56.37;92758.31;5068256;28;19932;-38
2023/04/03 08:11:32;;;;;;;;;;;;;;;13.39;54.47;92771.13;5068729;28;19944;-38
2023/04/03 08:13:57;;;;;;;;;;;;;;;13.53;56.21;92763.84;5066118;28;20407;-37
2023/04/03 08:16:25;;;;;;;;;;;;;;;13.64;55.25;92762.53;5069264;28;19952;-38
2023/04/03 08:18:50;;;;;;;;;;;;;;;13.81;53.93;92753.31;5066434;28;19939;-38
2023/04/03 08:21:16;;;;;;;;;;;;;;;13.60;52.78;92759.44;5065266;28;20407;-38
2023/04/03 08:23:41;;;;;;;;;;;;;;;13.51;54.60;92749.09;5065519;28;19948;-38
2023/04/03 08:26:11;;;;;;;;;;;;;;;13.63;52.52;92745.16;5066167;28;19936;-38
2023/04/03 08:28:36;;;;;;;;;;;;;;;13.64;54.02;92743.81;5064141;28;20399;-38
2023/04/03 08:31:02;;;;;;;;;;;;;;;13.87;51.64;92740.59;5065748;28;19939;-38
2023/04/03 08:33:28;;;;;;;;;;;;;;;13.77;53.67;92739.16;5067496;28;19941;-38
2023/04/03 08:35:53;;;;;;;;;;;;;;;13.61;53.07;92744.28;5065534;28;19934;-38
2023/04/03 08:38:46;;;;;;;;;;;;;;;13.73;50.98;92738.88;5066386;28;20544;-38
2023/04/03 08:41:12;;;;;;;;;;;;;;;14.10;51.02;92731.75;5064781;28;19959;-38
2023/04/03 08:43:37;;;;;;;;;;;;;;;14.16;51.10;92723.84;5066423;28;19944;-38
2023/04/03 08:46:02;;;;;;;;;;;;;;;14.09;51.57;92727.53;5066858;28;20390;-38
2023/04/03 08:48:29;;;;;;;;;;;;;;;13.94;51.49;92727.88;5097916;27;19949;-38
2023/04/03 08:50:56;;;;;;;;;;;;;;;13.74;52.33;92727.19;5077981;28;19958;-38
2023/04/03 08:53:23;;;;;;;;;;;;;;;13.74;53.12;92724.41;5099465;27;20001;-38
2023/04/03 08:55:49;;;;;;;;;;;;;;;13.53;54.14;92727.06;5067139;28;19944;-38
2023/04/03 08:58:19;;;;;;;;;;;;;;;13.46;53.06;92725.91;5065767;28;19976;-39
2023/04/03 09:00:45;;;;;;;;;;;;;;;13.49;53.43;92724.72;5097038;27;19964;-38
2023/04/03 09:03:14;;;;;;;;;;;;;;;13.54;51.27;92725.72;5068755;28;20513;-38
2023/04/03 09:05:48;;;;;;;;;;;;;;;13.21;52.47;92719.19;5095970;27;19937;-38
2023/04/03 09:08:18;;;;;;;;;;;;;;;13.12;53.85;92717.88;5061554;28;19942;-38
2023/04/03 09:10:43;;;;;;;;;;;;;;;13.30;54.18;92719.19;5098650;27;19942;-38
2023/04/03 09:13:08;;;;;;;;;;;;;;;13.41;53.12;92715.09;5066522;28;19949;-42
2023/04/03 09:15:34;;;;;;;;;;;;;;;13.41;54.39;92713.06;5066817;28;19944;-38
2023/04/03 09:18:02;;;;;;;;;;;;;;;13.39;53.82;92712.91;5075615;28;19935;-38
2023/04/03 09:20:36;;;;;;;;;;;;;;;13.44;52.26;92706.34;5103726;27;19940;-38
2023/04/03 09:23:02;;;;;;;;;;;;;;;13.48;53.85;92703.13;5068862;28;19951;-38
2023/04/03 09:25:30;;;;;;;;;;;;;;;13.60;51.98;92712.28;5061140;28;19948;-38
2023/04/03 09:27:55;;;;;;;;;;;;;;;13.73;48.96;92709.06;5059440;28;19995;-38
2023/04/03 09:30:25;;;;;;;;;;;;;;;13.74;49.75;92704.97;5067819;28;20387;-38
2023/04/03 09:32:51;;;;;;;;;;;;;;;13.93;50.14;92693.81;5062410;28;19976;-38
2023/04/03 09:35:27;;;;;;;;;;;;;;;13.75;50.61;92700.16;5067849;28;19936;-38
2023/04/03 09:37:53;;;;;;;;;;;;;;;13.74;50.70;92682.06;5065374;28;19984;-38
2023/04/03 09:40:25;;;;;;;;;;;;;;;13.82;49.49;92690.97;5095091;27;19940;-38
2023/04/03 09:42:51;;;;;;;;;;;;;;;13.34;47.71;92691.03;5067519;28;19980;-38
2023/04/03 09:45:24;;;;;;;;;;;;;;;13.85;47.57;92681.44;5066444;28;19995;-38
2023/04/03 09:47:50;;;;;;;;;;;;;;;13.84;47.04;92677.22;5070195;28;19938;-38
2023/04/03 09:50:20;;;;;;;;;;;;;;;13.36;46.30;92680.09;5098161;28;20451;-38
2023/04/03 09:52:47;;;;;;;;;;;;;;;13.31;47.46;92676.28;5065682;28;20454;-38
2023/04/03 09:55:26;;;;;;;;;;;;;;;13.53;50.26;92672.34;5070229;28;20017;-38
2023/04/03 09:57:52;;;;;;;;;;;;;;;13.72;48.75;92673.59;5069329;28;19938;-38
2023/04/03 10:00:22;;;;;;;;;;;;;;;13.40;49.01;92683.88;5066163;28;20545;-38
2023/04/03 10:02:51;;;;;;;;;;;;;;;13.02;49.94;92680.34;5065361;28;19955;-38
2023/04/03 10:05:31;;;;;;;;;;;;;;;12.91;51.65;92673.34;5065721;28;19943;-38
2023/04/03 10:08:10;;;;;;;;;;;;;;;12.90;52.30;92674.66;5075040;28;20425;-38
2023/04/03 10:10:35;;;;;;;;;;;;;;;12.60;53.36;92670.41;5066349;28;19973;-38
2023/04/03 10:13:05;;;;;;;;;;;;;;;12.46;51.53;92661.06;5068530;28;20446;-38
2023/04/03 10:15:32;;;;;;;;;;;;;;;12.14;52.50;92658.66;5067937;28;19945;-37
2023/04/03 10:17:58;;;;;;;;;;;;;;;12.24;52.36;92661.44;5100545;27;19942;-38
2023/04/03 10:20:24;;;;;;;;;;;;;;;11.99;52.52;92664.44;5104965;27;19928;-38
2023/04/03 10:23:00;;;;;;;;;;;;;;;11.77;53.37;92660.69;5069477;28;20068;-38
2023/04/03 10:25:35;;;;;;;;;;;;;;;11.51;54.20;92655.88;5071743;28;20026;-38
2023/04/03 10:28:00;;;;;;;;;;;;;;;11.55;54.48;92658.22;5072080;28;19944;-37
2023/04/03 10:30:30;;;;;;;;;;;;;;;11.51;54.54;92660.66;5069814;28;19929;-37
2023/04/03 10:33:19;;;;;;;;;;;;;;;11.48;54.27;92659.78;5075889;28;20061;-38
2023/04/03 10:36:03;;;;;;;;;;;;;;;11.32;54.68;92648.22;5106479;27;19932;-37
2023/04/03 10:38:34;;;;;;;;;;;;;;;11.30;55.93;92655.63;5073390;28;20442;-38
2023/04/03 10:41:00;;;;;;;;;;;;;;;11.37;56.35;92644.44;5070238;28;20032;-38
2023/04/03 10:43:35;;;;;;;;;;;;;;;11.26;55.67;92647.72;5071864;28;20036;-37
2023/04/03 10:46:06;;;;;;;;;;;;;;;11.06;55.87;92648.91;5071558;28;19933;-37
2023/04/03 10:48:50;;;;;;;;;;;;;;;11.18;57.38;92647.09;5071506;28;19930;-38
2023/04/03 10:51:27;;;;;;;;;;;;;;;11.21;57.13;92645.22;5071231;28;19933;-37
2023/04/03 10:53:55;;;;;;;;;;;;;;;11.19;57.50;92640.28;5071528;28;19935;-37
2023/04/03 10:56:40;;;;;;;;;;;;;;;11.37;58.19;92638.91;5072480;28;19939;-37
2023/04/03 10:59:17;;;;;;;;;;;;;;;11.20;59.72;92638.22;5100142;27;19982;-37
2023/04/03 11:01:44;;;;;;;;;;;;;;;11.02;59.93;92643.06;5099939;28;20585;-38
2023/04/03 11:04:10;;;;;;;;;;;;;;;11.04;60.89;92651.53;5101028;27;19924;-38
2023/04/03 11:06:38;;;;;;;;;;;;;;;10.81;62.19;92650.31;5098965;27;20497;-37
2023/04/03 11:09:06;;;;;;;;;;;;;;;10.65;63.25;92647.00;5102123;27;20337;-37
2023/04/03 11:11:36;;;;;;;;;;;;;;;10.62;65.44;92651.63;5099211;27;20034;-37
2023/04/03 11:14:20;;;;;;;;;;;;;;;10.53;66.26;92649.50;5063641;28;19963;-37
2023/04/03 11:16:47;;;;;;;;;;;;;;;10.70;66.16;92651.53;5068448;28;19940;-37
2023/04/03 11:19:23;;;;;;;;;;;;;;;10.66;68.17;92659.50;5069661;28;20381;-38
2023/04/03 11:21:57;;;;;;;;;;;;;;;10.53;69.74;92668.84;5097717;27;19953;-38
2023/04/03 11:24:24;;;;;;;;;;;;;;;10.57;70.04;92662.91;5067582;28;19928;-38
2023/04/03 11:26:49;;;;;;;;;;;;;;;10.25;70.45;92660.25;5065841;28;20039;-37
2023/04/03 11:29:15;;;;;;;;;;;;;;;10.31;72.90;92674.56;5066254;28;20729;-37
2023/04/03 11:31:40;;;;;;;;;;;;;;;10.39;72.33;92670.44;5101739;27;19930;-37
2023/04/03 11:34:15;;;;;;;;;;;;;;;10.15;73.68;92668.47;5067519;28;19959;-37
2023/04/03 11:36:42;;;;;;;;;;;;;;;9.94;74.79;92671.53;5071109;28;19977;-37
2023/04/03 11:39:13;;;;;;;;;;;;;;;10.11;76.55;92681.19;5074719;28;19931;-37
2023/04/03 11:41:38;;;;;;;;;;;;;;;10.08;77.78;92671.25;5103044;27;19978;-37
2023/04/03 11:44:05;;;;;;;;;;;;;;;10.01;79.62;92674.78;5064798;28;19936;-37
2023/04/03 11:46:49;;;;;;;;;;;;;;;10.03;80.95;92678.44;5067666;28;19937;-37
2023/04/03 11:49:33;;;;;;;;;;;;;;;9.94;82.83;92679.06;5065945;28;20400;-38
2023/04/03 11:51:59;;;;;;;;;;;;;;;9.84;84.48;92678.97;5066505;28;20025;-38
2023/04/03 11:54:42;;;;;;;;;;;;;;;10.19;84.24;92693.63;5067814;28;20028;-37
2023/04/03 11:57:41;;;;;;;;;;;;;;;9.87;83.28;92680.56;5068219;28;19939;-37
2023/04/03 12:00:26;;;;;;;;;;;;;;;9.82;87.41;92689.09;5099970;27;20465;-37
2023/04/03 12:02:52;;;;;;;;;;;;;;;9.74;83.82;92693.94;5068155;28;20317;-38
2023/04/03 12:05:24;;;;;;;;;;;;;;;9.65;83.67;92689.03;5067976;28;19954;-38
2023/04/03 12:08:08;;;;;;;;;;;;;;;9.38;84.56;92694.31;5063658;28;19942;-37
2023/04/03 12:10:34;;;;;;;;;;;;;;;9.39;84.26;92697.81;5065959;28;19984;-37
2023/04/03 12:12:59;;;;;;;;;;;;;;;9.11;86.21;92690.59;5068877;28;19979;-37
2023/04/03 12:15:26;;;;;;;;;;;;;;;9.09;84.63;92685.66;5069743;28;19946;-38
2023/04/03 12:17:52;;;;;;;;;;;;;;;8.99;86.32;92687.53;5069190;28;19951;-37
2023/04/03 12:20:36;;;;;;;;;;;;;;;9.11;85.55;92680.31;5070221;28;19928;-38
2023/04/03 12:23:23;;;;;;;;;;;;;;;9.05;85.53;92690.78;5068495;28;19962;-37
2023/04/03 12:25:49;;;;;;;;;;;;;;;9.02;87.33;92688.44;5069679;28;19937;-38
2023/04/03 12:28:14;;;;;;;;;;;;;;;9.06;87.06;92686.75;5071114;28;19942;-38
2023/04/03 12:30:41;;;;;;;;;;;;;;;8.87;86.91;92691.25;5102856;27;19953;-38
2023/04/03 12:33:12;;;;;;;;;;;;;;;8.94;87.01;92687.75;5069671;28;19995;-38
2023/04/03 12:35:49;;;;;;;;;;;;;;;8.73;88.44;92676.22;5068757;28;19936;-38
2023/04/03 12:38:30;;;;;;;;;;;;;;;8.83;89.72;92671.63;5069064;28;19936;-38
2023/04/03 12:41:14;;;;;;;;;;;;;;;8.90;88.71;92668.13;5069226;28;20026;-38
2023/04/03 12:43:58;;;;;;;;;;;;;;;8.84;90.39;92654.53;5068574;28;19937;-43
2023/04/03 12:46:24;;;;;;;;;;;;;;;8.74;89.88;92653.69;5072075;28;19937;-38
2023/04/03 12:48:51;;;;;;;;;;;;;;;8.77;89.96;92647.03;5070471;28;19937;-38
2023/04/03 12:51:28;;;;;;;;;;;;;;;8.59;91.11;92648.22;5066863;28;20333;-38
2023/04/03 12:53:56;;;;;;;;;;;;;;;8.65;91.52;92635.00;5103718;27;19933;-38